createdAt,value
2017-06-02T00:00:23.824Z,0
2017-06-02T00:01:04.718Z,0
2017-06-02T00:01:45.602Z,0
2017-06-02T00:02:26.498Z,0
2017-06-02T00:03:07.401Z,0
2017-06-02T00:03:48.297Z,0
2017-06-02T00:04:29.202Z,0
2017-06-02T00:05:10.091Z,0
2017-06-02T00:05:50.984Z,0
2017-06-02T00:06:31.882Z,0
2017-06-02T00:07:12.778Z,0
2017-06-02T00:07:53.668Z,0
2017-06-02T00:08:34.573Z,0
2017-06-02T00:09:15.456Z,0
2017-06-02T00:09:56.349Z,0
2017-06-02T00:10:37.246Z,0
2017-06-02T00:11:18.126Z,0
2017-06-02T00:11:59.024Z,0
2017-06-02T00:12:39.920Z,0
2017-06-02T00:13:20.809Z,0
2017-06-02T00:14:01.700Z,0
2017-06-02T00:14:42.595Z,0
2017-06-02T00:15:23.487Z,0
2017-06-02T00:16:04.376Z,0
2017-06-02T00:16:45.272Z,0
2017-06-02T00:17:26.164Z,0
2017-06-02T00:18:07.078Z,0
2017-06-02T00:18:47.961Z,0
2017-06-02T00:19:28.849Z,0
2017-06-02T00:20:09.752Z,0
2017-06-02T00:20:50.642Z,0
2017-06-02T00:21:31.536Z,0
2017-06-02T00:22:12.435Z,0
2017-06-02T00:22:53.317Z,0
2017-06-02T00:23:34.214Z,0
2017-06-02T00:24:15.103Z,0
2017-06-02T00:24:55.999Z,0
2017-06-02T00:25:36.933Z,0
2017-06-02T00:26:17.782Z,0
2017-06-02T00:26:58.672Z,0
2017-06-02T00:27:39.569Z,0
2017-06-02T00:28:20.458Z,0
2017-06-02T00:29:01.351Z,0
2017-06-02T00:29:42.244Z,0
2017-06-02T00:30:23.146Z,0
2017-06-02T00:31:04.024Z,0
2017-06-02T00:31:44.918Z,0
2017-06-02T00:32:25.814Z,0
2017-06-02T00:33:06.700Z,0
2017-06-02T00:33:47.593Z,0
2017-06-02T00:34:28.494Z,0
2017-06-02T00:35:09.389Z,0
2017-06-02T00:35:50.286Z,0
2017-06-02T00:36:31.180Z,0
2017-06-02T00:37:12.066Z,0
2017-06-02T00:37:52.967Z,0
2017-06-02T00:38:33.858Z,0
2017-06-02T00:39:14.740Z,0
2017-06-02T00:39:55.640Z,0
2017-06-02T00:40:36.531Z,0
2017-06-02T00:41:17.455Z,0
2017-06-02T00:41:58.344Z,0
2017-06-02T00:42:39.222Z,0
2017-06-02T00:43:20.127Z,0
2017-06-02T00:44:01.016Z,0
2017-06-02T00:44:41.882Z,0
2017-06-02T00:45:22.745Z,0
2017-06-02T00:46:03.629Z,0
2017-06-02T00:46:44.559Z,0
2017-06-02T00:47:25.416Z,0
2017-06-02T00:48:06.322Z,0
2017-06-02T00:48:47.219Z,0
2017-06-02T00:49:28.098Z,0
2017-06-02T00:50:08.998Z,0
2017-06-02T00:50:49.898Z,0
2017-06-02T00:51:30.781Z,0
2017-06-02T00:52:11.667Z,0
2017-06-02T00:52:52.593Z,0
2017-06-02T00:53:33.486Z,0
2017-06-02T00:54:14.393Z,0
2017-06-02T00:54:55.276Z,0
2017-06-02T00:55:36.175Z,0
2017-06-02T00:56:17.062Z,0
2017-06-02T00:56:57.949Z,0
2017-06-02T00:57:38.847Z,0
2017-06-02T00:58:19.747Z,0
2017-06-02T00:59:00.634Z,0
2017-06-02T00:59:41.521Z,0
2017-06-02T01:00:22.420Z,0
2017-06-02T01:01:03.310Z,0
2017-06-02T01:01:44.210Z,0
2017-06-02T01:02:25.104Z,0
2017-06-02T01:03:05.996Z,0
2017-06-02T01:03:46.898Z,0
2017-06-02T01:04:27.793Z,0
2017-06-02T01:05:08.697Z,0
2017-06-02T01:05:49.595Z,0
2017-06-02T01:06:30.485Z,0
2017-06-02T01:07:11.410Z,0
2017-06-02T01:07:52.289Z,0
2017-06-02T01:08:33.175Z,0
2017-06-02T01:09:14.064Z,0
2017-06-02T01:09:54.954Z,0
2017-06-02T01:10:35.854Z,0
2017-06-02T01:11:16.765Z,0
2017-06-02T01:11:57.646Z,0
2017-06-02T01:12:38.584Z,0
2017-06-02T01:13:19.439Z,0
2017-06-02T01:14:00.308Z,0
2017-06-02T01:16:09.255Z,0
2017-06-02T01:16:50.152Z,0
2017-06-02T01:17:31.038Z,0
2017-06-02T01:18:11.935Z,0
2017-06-02T01:18:52.833Z,0
2017-06-02T01:19:33.715Z,0
2017-06-02T01:20:14.603Z,0
2017-06-02T01:20:55.507Z,0
2017-06-02T01:21:36.396Z,0
2017-06-02T01:22:17.278Z,0
2017-06-02T01:22:58.168Z,0
2017-06-02T01:23:39.062Z,0
2017-06-02T01:24:19.951Z,0
2017-06-02T01:25:00.841Z,0
2017-06-02T01:25:41.734Z,0
2017-06-02T01:26:22.618Z,0
2017-06-02T01:27:03.492Z,0
2017-06-02T01:27:44.394Z,0
2017-06-02T01:28:25.281Z,0
2017-06-02T01:29:06.163Z,0
2017-06-02T01:29:47.047Z,0
2017-06-02T01:30:27.955Z,0
2017-06-02T01:31:08.829Z,0
2017-06-02T01:31:49.722Z,0
2017-06-02T01:32:30.633Z,0
2017-06-02T01:33:11.510Z,0
2017-06-02T01:33:52.403Z,0
2017-06-02T01:34:33.308Z,0
2017-06-02T01:35:14.178Z,0
2017-06-02T01:35:55.066Z,0
2017-06-02T01:36:35.985Z,0
2017-06-02T01:37:16.846Z,0
2017-06-02T01:37:57.722Z,0
2017-06-02T01:38:38.635Z,0
2017-06-02T01:39:19.526Z,0
2017-06-02T01:40:00.414Z,0
2017-06-02T01:40:41.281Z,0
2017-06-02T01:41:22.186Z,0
2017-06-02T01:42:03.048Z,0
2017-06-02T01:42:43.924Z,0
2017-06-02T01:43:24.812Z,0
2017-06-02T01:44:05.718Z,0
2017-06-02T01:44:46.596Z,0
2017-06-02T01:45:27.487Z,0
2017-06-02T01:46:08.393Z,0
2017-06-02T01:46:49.274Z,0
2017-06-02T01:47:30.166Z,0
2017-06-02T01:48:11.074Z,0
2017-06-02T01:48:51.955Z,0
2017-06-02T01:49:32.838Z,0
2017-06-02T01:50:13.749Z,0
2017-06-02T01:50:54.627Z,0
2017-06-02T01:51:35.494Z,0
2017-06-02T01:52:16.375Z,0
2017-06-02T01:52:57.281Z,0
2017-06-02T01:53:38.158Z,0
2017-06-02T01:54:19.030Z,0
2017-06-02T01:54:59.904Z,0
2017-06-02T01:55:40.815Z,0
2017-06-02T01:56:21.690Z,0
2017-06-02T01:57:02.569Z,0
2017-06-02T01:57:43.444Z,0
2017-06-02T01:58:24.349Z,0
2017-06-02T01:59:05.227Z,0
2017-06-02T01:59:46.116Z,0
2017-06-02T02:00:27.026Z,0
2017-06-02T02:02:36.029Z,0
2017-06-02T02:03:16.906Z,0
2017-06-02T02:03:57.794Z,0
2017-06-02T02:04:38.681Z,0
2017-06-02T02:05:19.587Z,4
2017-06-02T02:06:00.474Z,4
2017-06-02T02:06:41.357Z,4
2017-06-02T02:07:22.255Z,4
2017-06-02T02:08:03.139Z,4
2017-06-02T02:08:44.027Z,0
2017-06-02T02:09:24.922Z,4
2017-06-02T02:10:05.806Z,0
2017-06-02T02:10:46.688Z,0
2017-06-02T02:11:27.586Z,4
2017-06-02T02:12:08.472Z,4
2017-06-02T02:12:49.348Z,4
2017-06-02T02:13:30.246Z,4
2017-06-02T02:14:11.150Z,4
2017-06-02T02:14:52.055Z,8
2017-06-02T02:15:32.962Z,4
2017-06-02T02:16:13.849Z,4
2017-06-02T02:16:54.709Z,4
2017-06-02T02:17:35.596Z,8
2017-06-02T02:18:16.495Z,4
2017-06-02T02:18:57.381Z,8
2017-06-02T02:19:38.244Z,8
2017-06-02T02:20:19.127Z,8
2017-06-02T02:21:00.008Z,8
2017-06-02T02:21:40.890Z,8
2017-06-02T02:22:21.752Z,12
2017-06-02T02:23:02.629Z,8
2017-06-02T02:23:43.517Z,12
2017-06-02T02:24:24.424Z,12
2017-06-02T02:25:05.294Z,12
2017-06-02T02:25:46.185Z,16
2017-06-02T02:26:27.086Z,16
2017-06-02T02:27:07.981Z,20
2017-06-02T02:27:48.869Z,20
2017-06-02T02:28:29.776Z,16
2017-06-02T02:29:10.649Z,20
2017-06-02T02:29:51.544Z,24
2017-06-02T02:30:32.445Z,28
2017-06-02T02:31:13.320Z,28
2017-06-02T02:31:54.203Z,32
2017-06-02T02:32:35.100Z,32
2017-06-02T02:33:15.983Z,36
2017-06-02T02:33:56.875Z,36
2017-06-02T02:34:37.761Z,40
2017-06-02T02:35:18.649Z,40
2017-06-02T02:35:59.539Z,44
2017-06-02T02:36:40.416Z,48
2017-06-02T02:37:21.336Z,48
2017-06-02T02:38:02.208Z,52
2017-06-02T02:38:43.096Z,60
2017-06-02T02:39:23.985Z,60
2017-06-02T02:40:04.872Z,64
2017-06-02T02:40:45.753Z,68
2017-06-02T02:41:26.648Z,72
2017-06-02T02:42:07.535Z,76
2017-06-02T02:42:48.421Z,80
2017-06-02T02:43:29.301Z,84
2017-06-02T02:44:10.207Z,92
2017-06-02T02:44:51.104Z,96
2017-06-02T02:45:31.980Z,100
2017-06-02T02:46:12.913Z,104
2017-06-02T02:46:53.769Z,108
2017-06-02T02:47:34.661Z,120
2017-06-02T02:48:15.587Z,124
2017-06-02T02:48:56.459Z,128
2017-06-02T02:49:37.329Z,136
2017-06-02T02:50:18.221Z,140
2017-06-02T02:50:59.111Z,148
2017-06-02T02:51:39.992Z,156
2017-06-02T02:52:20.892Z,160
2017-06-02T02:53:01.777Z,172
2017-06-02T02:53:42.665Z,176
2017-06-02T02:54:23.561Z,184
2017-06-02T02:55:04.469Z,188
2017-06-02T02:55:45.341Z,196
2017-06-02T02:56:26.234Z,204
2017-06-02T02:57:07.137Z,212
2017-06-02T02:57:48.017Z,220
2017-06-02T02:58:28.896Z,228
2017-06-02T02:59:09.794Z,236
2017-06-02T02:59:50.679Z,244
2017-06-02T03:00:31.554Z,256
2017-06-02T03:01:12.441Z,260
2017-06-02T03:01:53.333Z,272
2017-06-02T03:02:34.225Z,280
2017-06-02T03:03:15.114Z,292
2017-06-02T03:03:56.014Z,300
2017-06-02T03:04:36.901Z,308
2017-06-02T03:05:17.806Z,316
2017-06-02T03:05:58.690Z,324
2017-06-02T03:06:39.570Z,332
2017-06-02T03:07:20.454Z,340
2017-06-02T03:08:01.352Z,348
2017-06-02T03:08:42.242Z,360
2017-06-02T03:09:23.123Z,368
2017-06-02T03:10:04.022Z,380
2017-06-02T03:10:44.911Z,384
2017-06-02T03:11:25.795Z,396
2017-06-02T03:12:06.687Z,408
2017-06-02T03:12:47.576Z,420
2017-06-02T03:13:28.464Z,428
2017-06-02T03:14:09.354Z,440
2017-06-02T03:14:50.266Z,452
2017-06-02T03:15:31.124Z,460
2017-06-02T03:16:12.004Z,472
2017-06-02T03:16:52.894Z,484
2017-06-02T03:17:33.794Z,496
2017-06-02T03:18:14.683Z,508
2017-06-02T03:18:55.572Z,520
2017-06-02T03:19:36.453Z,532
2017-06-02T03:20:17.357Z,536
2017-06-02T03:20:58.242Z,548
2017-06-02T03:21:39.127Z,564
2017-06-02T03:22:20.011Z,572
2017-06-02T03:23:00.892Z,588
2017-06-02T03:23:41.785Z,600
2017-06-02T03:24:22.662Z,616
2017-06-02T03:25:03.571Z,632
2017-06-02T03:25:44.466Z,648
2017-06-02T03:26:25.355Z,660
2017-06-02T03:27:06.240Z,668
2017-06-02T03:27:47.158Z,684
2017-06-02T03:28:28.038Z,692
2017-06-02T03:29:08.926Z,700
2017-06-02T03:31:07.715Z,732
2017-06-02T03:31:48.579Z,744
2017-06-02T03:32:29.466Z,752
2017-06-02T03:33:10.354Z,764
2017-06-02T03:33:51.242Z,772
2017-06-02T03:34:32.137Z,788
2017-06-02T03:35:13.009Z,796
2017-06-02T03:35:53.896Z,804
2017-06-02T03:36:34.775Z,816
2017-06-02T03:37:15.680Z,828
2017-06-02T03:37:56.562Z,836
2017-06-02T03:38:37.454Z,848
2017-06-02T03:39:18.335Z,856
2017-06-02T03:39:59.220Z,864
2017-06-02T03:40:40.109Z,876
2017-06-02T03:41:20.983Z,888
2017-06-02T03:42:01.884Z,904
2017-06-02T03:42:42.774Z,912
2017-06-02T03:43:23.660Z,920
2017-06-02T03:44:04.550Z,932
2017-06-02T03:44:45.436Z,944
2017-06-02T03:45:26.320Z,948
2017-06-02T03:46:07.201Z,960
2017-06-02T03:46:48.086Z,968
2017-06-02T03:47:28.965Z,980
2017-06-02T03:48:09.874Z,992
2017-06-02T03:48:50.738Z,1004
2017-06-02T03:49:31.634Z,1012
2017-06-02T03:50:12.521Z,1028
2017-06-02T03:50:53.431Z,1036
2017-06-02T03:51:34.327Z,1048
2017-06-02T03:52:15.213Z,1064
2017-06-02T03:52:56.106Z,1076
2017-06-02T03:53:36.990Z,1084
2017-06-02T03:54:17.876Z,1100
2017-06-02T03:54:58.776Z,1112
2017-06-02T03:55:39.655Z,1124
2017-06-02T03:56:20.549Z,1140
2017-06-02T03:57:01.427Z,1152
2017-06-02T03:57:42.337Z,1168
2017-06-02T03:58:23.211Z,1176
2017-06-02T03:59:04.098Z,1192
2017-06-02T03:59:44.985Z,1204
2017-06-02T04:00:25.899Z,1224
2017-06-02T04:01:06.797Z,1228
2017-06-02T04:01:47.692Z,1240
2017-06-02T04:02:28.579Z,1248
2017-06-02T04:03:09.477Z,1272
2017-06-02T04:03:50.388Z,1280
2017-06-02T04:04:31.277Z,1284
2017-06-02T04:05:12.186Z,1304
2017-06-02T04:05:53.078Z,1308
2017-06-02T04:06:33.967Z,1316
2017-06-02T04:07:14.870Z,1332
2017-06-02T04:07:55.759Z,1340
2017-06-02T04:08:36.637Z,1352
2017-06-02T04:09:17.540Z,1364
2017-06-02T04:09:58.489Z,1376
2017-06-02T04:10:39.305Z,1388
2017-06-02T04:11:20.194Z,1400
2017-06-02T04:12:01.087Z,1404
2017-06-02T04:12:41.970Z,1416
2017-06-02T04:13:22.865Z,1432
2017-06-02T04:14:03.773Z,1440
2017-06-02T04:14:44.631Z,1456
2017-06-02T04:15:25.508Z,1464
2017-06-02T04:16:06.405Z,1480
2017-06-02T04:16:47.301Z,1488
2017-06-02T04:17:28.206Z,1496
2017-06-02T04:18:09.093Z,1508
2017-06-02T04:18:49.975Z,1512
2017-06-02T04:19:30.859Z,1532
2017-06-02T04:20:11.752Z,1544
2017-06-02T04:20:52.656Z,1556
2017-06-02T04:21:33.549Z,1568
2017-06-02T04:22:14.444Z,1584
2017-06-02T04:22:55.370Z,1596
2017-06-02T04:23:36.263Z,1608
2017-06-02T04:24:17.168Z,1616
2017-06-02T04:24:58.031Z,1628
2017-06-02T04:25:38.933Z,1648
2017-06-02T04:26:19.813Z,1648
2017-06-02T04:27:00.687Z,1664
2017-06-02T04:27:41.570Z,1676
2017-06-02T04:28:22.466Z,1692
2017-06-02T04:29:03.360Z,1700
2017-06-02T04:29:44.225Z,1716
2017-06-02T04:30:25.105Z,1728
2017-06-02T04:31:05.997Z,1740
2017-06-02T04:31:46.896Z,1752
2017-06-02T04:32:27.758Z,1760
2017-06-02T04:33:08.659Z,1780
2017-06-02T04:33:49.563Z,1788
2017-06-02T04:34:30.454Z,1804
2017-06-02T04:35:11.344Z,1816
2017-06-02T04:35:52.218Z,1828
2017-06-02T04:36:33.101Z,1844
2017-06-02T04:37:13.984Z,1852
2017-06-02T04:37:54.886Z,1868
2017-06-02T04:38:35.776Z,1884
2017-06-02T04:39:16.666Z,1900
2017-06-02T04:39:57.567Z,1912
2017-06-02T04:40:38.466Z,1928
2017-06-02T04:41:19.337Z,1944
2017-06-02T04:42:00.243Z,1956
2017-06-02T04:42:41.167Z,1976
2017-06-02T04:43:22.058Z,1988
2017-06-02T04:44:02.948Z,2008
2017-06-02T04:44:43.835Z,2016
2017-06-02T04:45:24.727Z,2032
2017-06-02T04:46:05.611Z,2048
2017-06-02T04:46:46.497Z,2060
2017-06-02T04:47:27.404Z,2080
2017-06-02T04:48:08.297Z,2092
2017-06-02T04:48:49.161Z,2104
2017-06-02T04:49:30.047Z,2120
2017-06-02T04:50:10.937Z,2136
2017-06-02T04:50:51.849Z,2152
2017-06-02T04:51:32.760Z,2168
2017-06-02T04:52:13.645Z,2180
2017-06-02T04:52:54.529Z,2196
2017-06-02T04:53:35.425Z,2212
2017-06-02T04:54:16.316Z,2232
2017-06-02T04:54:57.202Z,2244
2017-06-02T04:55:38.105Z,2260
2017-06-02T04:56:19.007Z,2276
2017-06-02T04:56:59.883Z,2296
2017-06-02T04:57:40.781Z,2312
2017-06-02T04:58:21.666Z,2324
2017-06-02T04:59:02.564Z,2344
2017-06-02T04:59:43.439Z,2356
2017-06-02T05:00:24.336Z,2372
2017-06-02T05:01:05.212Z,2384
2017-06-02T05:01:46.109Z,2408
2017-06-02T05:02:27.002Z,2424
2017-06-02T05:03:07.896Z,2444
2017-06-02T05:03:48.781Z,2464
2017-06-02T05:04:29.668Z,2484
2017-06-02T05:05:10.592Z,2504
2017-06-02T05:05:51.507Z,2548
2017-06-02T05:06:32.399Z,2552
2017-06-02T05:07:13.301Z,2580
2017-06-02T05:07:54.197Z,2600
2017-06-02T05:08:35.092Z,2624
2017-06-02T05:09:15.983Z,2652
2017-06-02T05:09:56.866Z,2684
2017-06-02T05:10:37.752Z,2712
2017-06-02T05:11:18.633Z,2732
2017-06-02T05:11:59.532Z,2756
2017-06-02T05:12:40.417Z,2772
2017-06-02T05:13:21.356Z,2788
2017-06-02T05:14:02.245Z,2812
2017-06-02T05:14:43.126Z,2840
2017-06-02T05:15:24.014Z,2860
2017-06-02T05:16:04.894Z,2880
2017-06-02T05:16:45.771Z,2916
2017-06-02T05:17:26.680Z,2936
2017-06-02T05:18:07.573Z,2964
2017-06-02T05:18:48.468Z,2976
2017-06-02T05:19:29.363Z,2992
2017-06-02T05:20:10.247Z,3028
2017-06-02T05:20:51.142Z,3064
2017-06-02T05:21:32.037Z,3100
2017-06-02T05:22:12.927Z,3144
2017-06-02T05:22:53.821Z,3184
2017-06-02T05:23:34.715Z,3220
2017-06-02T05:24:15.601Z,3260
2017-06-02T05:24:56.494Z,3300
2017-06-02T05:25:37.391Z,3348
2017-06-02T05:26:18.273Z,3380
2017-06-02T05:26:59.237Z,3408
2017-06-02T05:27:40.071Z,3440
2017-06-02T05:28:20.948Z,3468
2017-06-02T05:29:01.847Z,3496
2017-06-02T05:29:42.735Z,3520
2017-06-02T05:30:23.630Z,3548
2017-06-02T05:31:04.523Z,3568
2017-06-02T05:31:45.417Z,3576
2017-06-02T05:32:26.311Z,3580
2017-06-02T05:33:07.198Z,3572
2017-06-02T05:33:48.095Z,3588
2017-06-02T05:34:28.975Z,3656
2017-06-02T05:35:09.888Z,3712
2017-06-02T05:35:50.770Z,3760
2017-06-02T05:36:31.672Z,3776
2017-06-02T05:37:12.558Z,3812
2017-06-02T05:37:53.453Z,3848
2017-06-02T05:38:34.349Z,3920
2017-06-02T05:39:15.236Z,3976
2017-06-02T05:39:56.121Z,4032
2017-06-02T05:40:37.007Z,4080
2017-06-02T05:41:17.908Z,4144
2017-06-02T05:41:58.819Z,4204
2017-06-02T05:42:39.720Z,4280
2017-06-02T05:43:20.608Z,4356
2017-06-02T05:44:01.541Z,4432
2017-06-02T05:44:42.426Z,4516
2017-06-02T05:45:23.316Z,4612
2017-06-02T05:46:04.221Z,4712
2017-06-02T05:46:45.104Z,4816
2017-06-02T05:47:25.998Z,4912
2017-06-02T05:48:06.885Z,5016
2017-06-02T05:48:47.761Z,5136
2017-06-02T05:49:28.657Z,5264
2017-06-02T05:50:09.543Z,5376
2017-06-02T05:50:50.436Z,5476
2017-06-02T05:51:31.320Z,5576
2017-06-02T05:52:12.220Z,5760
2017-06-02T05:52:53.105Z,5912
2017-06-02T05:53:33.997Z,6060
2017-06-02T05:54:14.880Z,6212
2017-06-02T05:54:55.781Z,6384
2017-06-02T05:55:36.665Z,6536
2017-06-02T05:56:17.550Z,6700
2017-06-02T05:56:58.445Z,6844
2017-06-02T05:57:39.331Z,7052
2017-06-02T05:58:20.209Z,7220
2017-06-02T05:59:01.104Z,7384
2017-06-02T05:59:42.050Z,7536
2017-06-02T06:00:22.947Z,7708
2017-06-02T06:01:03.838Z,7840
2017-06-02T06:01:44.722Z,7984
2017-06-02T06:02:25.627Z,8100
2017-06-02T06:03:06.515Z,8224
2017-06-02T06:03:47.412Z,8320
2017-06-02T06:04:28.292Z,8392
2017-06-02T06:05:09.186Z,8496
2017-06-02T06:05:50.076Z,8600
2017-06-02T06:06:30.963Z,8728
2017-06-02T06:07:11.841Z,8820
2017-06-02T06:07:52.750Z,9064
2017-06-02T06:08:33.638Z,9316
2017-06-02T06:09:14.570Z,9492
2017-06-02T06:09:55.470Z,9664
2017-06-02T06:10:36.356Z,9792
2017-06-02T06:11:17.241Z,9900
2017-06-02T06:11:58.207Z,9960
2017-06-02T06:14:12.383Z,10092
2017-06-02T06:14:53.256Z,10132
2017-06-02T06:15:34.139Z,10068
2017-06-02T06:16:15.015Z,10188
2017-06-02T06:17:53.429Z,10304
2017-06-02T06:18:34.335Z,10340
2017-06-02T06:19:15.223Z,10372
2017-06-02T06:19:56.130Z,10388
2017-06-02T06:20:37.029Z,10384
2017-06-02T06:21:17.980Z,10384
2017-06-02T06:21:58.831Z,10416
2017-06-02T06:22:39.772Z,10432
2017-06-02T06:23:20.659Z,10468
2017-06-02T06:24:01.567Z,10508
2017-06-02T06:24:42.463Z,10520
2017-06-02T06:25:23.365Z,10524
2017-06-02T06:26:04.262Z,10552
2017-06-02T06:26:45.158Z,10560
2017-06-02T06:27:26.054Z,10568
2017-06-02T06:28:06.943Z,10596
2017-06-02T06:28:47.998Z,10588
2017-06-02T06:29:29.016Z,10600
2017-06-02T06:30:09.917Z,10616
2017-06-02T06:30:50.822Z,10616
2017-06-02T06:31:31.717Z,10624
2017-06-02T06:32:12.621Z,10648
2017-06-02T06:32:53.521Z,10620
2017-06-02T06:33:34.429Z,10624
2017-06-02T06:34:15.328Z,10668
2017-06-02T06:34:56.230Z,10676
2017-06-02T06:35:37.139Z,10688
2017-06-02T06:36:18.051Z,10708
2017-06-02T06:36:58.956Z,10728
2017-06-02T06:37:39.863Z,10748
2017-06-02T06:38:20.764Z,10768
2017-06-02T06:39:01.671Z,10780
2017-06-02T06:39:42.575Z,10816
2017-06-02T06:40:23.490Z,10812
2017-06-02T06:41:04.417Z,10832
2017-06-02T06:41:45.327Z,10832
2017-06-02T06:42:26.226Z,10852
2017-06-02T06:44:20.853Z,10876
2017-06-02T06:45:01.754Z,10908
2017-06-02T06:45:42.661Z,10912
2017-06-02T06:46:23.567Z,10920
2017-06-02T06:47:04.502Z,10944
2017-06-02T06:47:45.402Z,10960
2017-06-02T06:48:26.328Z,10968
2017-06-02T06:49:07.221Z,10964
2017-06-02T06:49:48.135Z,10968
2017-06-02T06:50:29.038Z,10960
2017-06-02T06:51:09.954Z,10956
2017-06-02T06:51:50.859Z,10984
2017-06-02T06:52:31.772Z,11004
2017-06-02T06:53:12.671Z,11024
2017-06-02T06:53:53.568Z,11036
2017-06-02T06:54:34.477Z,11064
2017-06-02T06:55:15.374Z,11104
2017-06-02T06:55:56.284Z,11108
2017-06-02T06:56:37.187Z,11132
2017-06-02T06:57:18.100Z,11212
2017-06-02T06:57:59.002Z,11116
2017-06-02T06:58:39.933Z,11108
2017-06-02T06:59:20.831Z,11128
2017-06-02T07:00:01.770Z,11132
2017-06-02T07:00:42.681Z,11160
2017-06-02T07:01:23.586Z,11188
2017-06-02T07:02:04.483Z,11184
2017-06-02T07:02:45.386Z,11220
2017-06-02T07:03:26.289Z,11248
2017-06-02T07:04:07.200Z,11276
2017-06-02T07:04:48.109Z,11324
2017-06-02T07:05:29.025Z,11296
2017-06-02T07:06:09.928Z,11316
2017-06-02T07:06:50.835Z,11328
2017-06-02T07:07:31.731Z,11372
2017-06-02T07:08:12.655Z,11416
2017-06-02T07:08:53.549Z,11428
2017-06-02T07:09:34.482Z,11436
2017-06-02T07:10:15.381Z,11464
2017-06-02T07:10:56.295Z,11476
2017-06-02T07:11:37.171Z,11552
2017-06-02T07:12:18.081Z,11580
2017-06-02T07:12:58.986Z,11612
2017-06-02T07:13:39.879Z,11668
2017-06-02T07:14:20.788Z,11732
2017-06-02T07:15:01.681Z,11836
2017-06-02T07:15:42.592Z,11968
2017-06-02T07:16:23.489Z,12244
2017-06-02T07:17:04.425Z,13112
2017-06-02T07:17:45.320Z,18912
2017-06-02T07:18:26.237Z,32384
2017-06-02T07:19:07.127Z,47328
2017-06-02T07:19:48.040Z,61440
2017-06-02T07:20:28.951Z,68544
2017-06-02T07:21:09.861Z,69280
2017-06-02T07:21:50.763Z,69568
2017-06-02T07:22:31.663Z,68832
2017-06-02T07:23:12.567Z,66816
2017-06-02T07:23:53.471Z,65984
2017-06-02T07:24:34.391Z,64000
2017-06-02T07:25:15.298Z,63552
2017-06-02T07:25:56.201Z,64320
2017-06-02T07:26:37.086Z,65728
2017-06-02T07:27:18.002Z,66688
2017-06-02T07:27:58.904Z,66688
2017-06-02T07:28:39.827Z,60992
2017-06-02T07:29:20.725Z,57600
2017-06-02T07:30:01.643Z,55584
2017-06-02T07:30:42.534Z,56224
2017-06-02T07:31:23.452Z,60032
2017-06-02T07:32:04.356Z,65664
2017-06-02T07:32:45.289Z,65280
2017-06-02T07:33:26.183Z,63744
2017-06-02T07:34:07.097Z,63520
2017-06-02T07:34:48.001Z,62720
2017-06-02T07:35:28.911Z,61984
2017-06-02T07:36:09.840Z,61888
2017-06-02T07:36:50.767Z,62464
2017-06-02T07:37:31.689Z,64992
2017-06-02T07:38:12.592Z,64992
2017-06-02T07:38:53.522Z,65440
2017-06-02T07:39:34.449Z,66176
2017-06-02T07:40:15.358Z,63744
2017-06-02T07:40:56.256Z,57184
2017-06-02T07:41:37.163Z,53440
2017-06-02T07:42:18.077Z,55424
2017-06-02T07:42:58.982Z,56992
2017-06-02T07:43:39.892Z,59328
2017-06-02T07:44:20.803Z,63104
2017-06-02T07:45:01.721Z,69600
2017-06-02T07:45:42.619Z,70688
2017-06-02T07:46:23.528Z,71680
2017-06-02T07:47:04.433Z,70432
2017-06-02T07:47:45.349Z,68928
2017-06-02T07:48:26.258Z,68992
2017-06-02T07:49:07.143Z,68640
2017-06-02T07:49:48.048Z,68160
2017-06-02T07:50:28.954Z,67488
2017-06-02T07:51:09.867Z,66912
2017-06-02T07:51:50.796Z,62656
2017-06-02T07:52:31.709Z,48096
2017-06-02T07:53:12.613Z,29856
2017-06-02T07:53:53.519Z,15744
2017-06-02T07:54:34.443Z,12208
2017-06-02T07:55:15.341Z,11860
2017-06-02T07:55:56.250Z,11780
2017-06-02T07:56:37.169Z,11736
2017-06-02T07:57:18.093Z,11712
2017-06-02T07:57:58.995Z,11712
2017-06-02T07:58:39.913Z,11704
2017-06-02T07:59:20.827Z,11680
2017-06-02T08:00:01.758Z,11644
2017-06-02T08:00:42.646Z,11588
2017-06-02T08:01:23.559Z,11568
2017-06-02T08:02:04.467Z,11552
2017-06-02T08:02:45.385Z,11540
2017-06-02T08:03:26.300Z,11512
2017-06-02T08:04:07.215Z,11516
2017-06-02T08:04:48.119Z,11516
2017-06-02T08:05:29.043Z,11508
2017-06-02T08:06:09.947Z,11552
2017-06-02T08:06:50.848Z,11532
2017-06-02T08:07:31.742Z,11548
2017-06-02T08:08:12.678Z,11572
2017-06-02T08:08:53.573Z,11620
2017-06-02T08:09:34.487Z,11664
2017-06-02T08:10:15.384Z,11796
2017-06-02T08:10:56.306Z,12320
2017-06-02T08:11:37.220Z,20096
2017-06-02T08:12:18.124Z,35040
2017-06-02T08:12:59.053Z,51776
2017-06-02T08:13:39.965Z,64672
2017-06-02T08:14:20.901Z,69408
2017-06-02T08:15:01.817Z,65088
2017-06-02T08:15:42.728Z,57312
2017-06-02T08:16:23.654Z,49792
2017-06-02T08:17:04.552Z,56288
2017-06-02T08:17:45.476Z,72448
2017-06-02T08:18:26.388Z,84896
2017-06-02T08:19:07.309Z,82880
2017-06-02T08:19:48.213Z,78944
2017-06-02T08:20:29.127Z,78016
2017-06-02T08:21:10.026Z,76288
2017-06-02T08:21:50.955Z,75744
2017-06-02T08:22:31.858Z,75872
2017-06-02T08:23:12.766Z,77120
2017-06-02T08:23:53.679Z,78656
2017-06-02T08:24:34.585Z,79488
2017-06-02T08:25:15.495Z,80640
2017-06-02T08:25:56.403Z,82048
2017-06-02T08:26:37.314Z,82592
2017-06-02T08:27:18.231Z,73568
2017-06-02T08:27:59.132Z,70848
2017-06-02T08:28:40.041Z,72640
2017-06-02T08:29:20.988Z,77344
2017-06-02T08:30:01.902Z,82272
2017-06-02T08:30:42.815Z,81472
2017-06-02T08:31:23.723Z,82400
2017-06-02T08:32:04.637Z,82976
2017-06-02T08:32:45.545Z,82976
2017-06-02T08:33:26.480Z,82752
2017-06-02T08:34:07.390Z,81856
2017-06-02T08:34:48.298Z,81088
2017-06-02T08:35:29.225Z,80736
2017-06-02T08:36:10.137Z,81216
2017-06-02T08:36:51.049Z,82464
2017-06-02T08:38:49.931Z,88000
2017-06-02T08:39:30.853Z,89280
2017-06-02T08:40:11.772Z,86592
2017-06-02T08:40:52.689Z,77984
2017-06-02T08:41:33.597Z,67584
2017-06-02T08:42:14.514Z,51904
2017-06-02T08:42:55.419Z,49600
2017-06-02T08:43:36.338Z,67264
2017-06-02T08:44:17.254Z,82400
2017-06-02T08:44:58.170Z,84576
2017-06-02T08:45:39.084Z,81312
2017-06-02T08:46:19.995Z,77664
2017-06-02T08:48:29.045Z,71712
2017-06-02T08:49:09.967Z,73536
2017-06-02T08:49:50.883Z,75424
2017-06-02T08:50:31.798Z,76352
2017-06-02T08:51:12.708Z,77984
2017-06-02T08:51:53.634Z,80096
2017-06-02T08:52:34.563Z,84576
2017-06-02T08:53:15.482Z,88800
2017-06-02T08:53:56.396Z,93440
2017-06-02T08:54:37.317Z,94816
2017-06-02T08:55:18.234Z,98304
2017-06-02T08:55:59.168Z,101856
2017-06-02T08:56:40.098Z,105472
2017-06-02T08:57:20.998Z,106912
2017-06-02T08:58:01.928Z,106368
2017-06-02T08:58:42.840Z,101312
2017-06-02T08:59:23.756Z,85632
2017-06-02T09:00:04.708Z,78624
2017-06-02T09:00:45.629Z,76128
2017-06-02T09:01:26.545Z,81952
2017-06-02T09:02:07.452Z,77920
2017-06-02T09:02:48.364Z,75232
2017-06-02T09:03:29.296Z,75552
2017-06-02T09:05:44.546Z,83776
2017-06-02T09:06:25.478Z,89632
2017-06-02T09:07:06.391Z,94592
2017-06-02T09:07:47.299Z,97568
2017-06-02T09:08:28.218Z,104576
2017-06-02T09:09:09.137Z,109216
2017-06-02T09:09:50.055Z,111296
2017-06-02T09:10:30.975Z,110304
2017-06-02T09:11:11.884Z,106176
2017-06-02T09:11:52.806Z,102496
2017-06-02T09:12:33.718Z,97312
2017-06-02T09:13:14.639Z,87808
2017-06-02T09:13:55.552Z,81120
2017-06-02T09:14:36.451Z,73888
2017-06-02T09:15:17.383Z,68384
2017-06-02T09:15:58.300Z,63296
2017-06-02T09:16:39.224Z,62464
2017-06-02T09:17:20.142Z,63584
2017-06-02T09:18:01.062Z,71456
2017-06-02T09:18:41.997Z,78176
2017-06-02T09:19:22.911Z,87680
2017-06-02T09:20:03.825Z,93792
2017-06-02T09:20:44.740Z,96800
2017-06-02T09:21:25.666Z,88448
2017-06-02T09:22:06.595Z,87168
2017-06-02T09:22:47.530Z,95040
2017-06-02T09:23:28.526Z,108480
2017-06-02T09:24:09.448Z,107776
2017-06-02T09:24:50.371Z,106528
2017-06-02T09:25:31.291Z,104896
2017-06-02T09:26:12.197Z,102240
2017-06-02T09:26:53.121Z,98112
2017-06-02T09:27:34.040Z,96480